Latest Coastal Weather Observations for Centre Island

IDD60701

Issued at 5:21 pm CST Friday 18 September 2020 (issued every 10 minutes, with the page automatically refreshed every 10 minutes)

About coastal observations | Map of coastal stations | Coastal observations for NT | Marine services | Other Formats
Station Details ID: 014703 Name: CENTRE ISLAND Lat: -15.74 Lon: 136.82 Height: 12.2 m
Data from the previous 72 hours. | See also: Recent months at Centre Island
Date/Time
CST
Wind Sea
Height
m
Swell Vis
km
Cloud Weather Temp
°C
Press
hPa
Rain since
9am
mm
Dir  Spd
kts
Gust
kts
Height
m
Period
s
Dir
18/05:00pm NNE 9 11 - - - - - - - 29.2 1012.1 0.0
18/04:30pm NNE 11 14 - - - - - - - 29.3 1012.1 0.0
18/04:00pm NNE 11 15 - - - - - - - 29.8 1012.1 0.0
18/03:30pm NNE 11 15 - - - - - - - 30.4 1012.4 0.0
18/03:00pm NNE 12 16 - - - - - - - 30.2 1012.5 0.0
18/02:30pm NNE 13 17 - - - - - - - 30.8 1012.8 0.0
18/02:00pm NE 12 16 - - - - - - - 30.9 1013.1 0.0
18/01:30pm NE 13 16 - - - - - - - 31.0 1013.6 0.0
18/01:00pm NE 14 17 - - - - - - - 31.2 1013.8 0.0
18/12:30pm NE 13 17 - - - - - - - 31.3 1014.3 0.0
18/12:00pm NNE 13 17 - - - - - - - 30.7 1014.7 0.0
18/11:30am NNE 14 18 - - - - - - - 30.1 1015.2 0.0
18/11:00am NE 13 16 - - - - - - - 31.3 1015.1 0.0
18/10:30am NE 12 15 - - - - - - - 30.7 1015.1 0.0
18/10:00am NE 12 15 - - - - - - - 30.7 1015.2 0.0
18/09:30am ENE 5 8 - - - - - - - 29.6 1015.3 0.0
18/09:00am E 10 11 - - - - - - - 28.5 1014.8 0.0
18/08:30am E 8 9 - - - - - - - 28.7 1014.5 0.0
18/08:00am E 9 11 - - - - - - - 28.1 1014.2 0.0
18/07:30am ESE 8 9 - - - - - - - 27.4 1014.0 0.0
18/07:00am ESE 6 8 - - - - - - - 26.5 1013.8 0.0
18/06:30am SSE 5 6 - - - - - - - 26.4 1013.7 0.0
18/06:00am SE 4 5 - - - - - - - 25.9 1013.4 0.0
18/05:30am ENE 4 5 - - - - - - - 25.8 1012.7 0.0
18/05:00am ENE 5 7 - - - - - - - 25.8 1012.4 0.0
18/04:30am NE 5 6 - - - - - - - 25.8 1012.1 0.0
18/04:00am ENE 7 8 - - - - - - - 25.8 1012.1 0.0
18/03:30am NNE 5 7 - - - - - - - 26.0 1012.3 0.0
18/03:00am NE 8 11 - - - - - - - 26.1 1012.5 0.0
18/02:30am ENE 9 11 - - - - - - - 26.0 1012.4 0.0
18/02:00am ENE 6 8 - - - - - - - 25.9 1013.0 0.0
18/01:30am ENE 7 9 - - - - - - - 25.7 1013.2 0.0
18/01:00am ENE 1 3 - - - - - - - 25.7 1013.9 0.0
18/12:30am ENE 4 6 - - - - - - - 26.0 1014.2 0.0
18/12:00am E 4 6 - - - - - - - 25.9 1014.3 0.0
 
Date/Time
CST
Wind Sea
Height
m
Swell Vis
km
Cloud Weather Temp
°C
Press
hPa
Rain since
9am
mm
Dir  Spd
kts
Gust
kts
Height
m
Period
s
Dir
17/11:30pm ESE 4 5 - - - - - - - 26.0 1014.8 0.0
17/11:00pm ESE 5 6 - - - - - - - 26.0 1014.8 0.0
17/10:30pm ENE 7 9 - - - - - - - 25.8 1014.5 0.0
17/10:00pm ENE 6 8 - - - - - - - 25.8 1014.5 0.0
17/09:30pm ENE 8 10 - - - - - - - 25.9 1014.3 0.0
17/09:00pm ENE 9 11 - - - - - - - 26.1 1014.0 0.0
17/08:30pm ENE 10 13 - - - - - - - 26.1 1013.6 0.0
17/08:00pm NE 11 13 - - - - - - - 26.3 1013.4 0.0
17/07:30pm NE 13 17 - - - - - - - 26.5 1012.9 0.0
17/07:00pm NE 12 16 - - - - - - - 26.5 1012.5 0.0
17/06:30pm NE 12 15 - - - - - - - 26.7 1012.3 0.0
17/06:00pm NE 12 15 - - - - - - - 27.1 1011.9 0.0
17/05:30pm NE 13 16 - - - - - - - 27.7 1011.8 0.0
17/05:00pm NE 11 14 - - - - - - - 28.0 1011.7 0.0
17/04:30pm NE 11 13 - - - - - - - 28.4 1011.5 0.0
17/04:00pm NE 11 13 - - - - - - - 28.8 1011.5 0.0
17/03:30pm ENE 10 13 - - - - - - - 29.3 1011.9 0.0
17/03:00pm ENE 11 13 - - - - - - - 30.7 1012.1 0.0
17/02:30pm ENE 11 13 - - - - - - - 30.5 1012.5 0.0
17/02:00pm NE 11 14 - - - - - - - 31.2 1012.7 0.0
17/01:30pm E 11 14 - - - - - - - 31.9 1013.0 0.0
17/01:00pm E 14 16 - - - - - - - 31.2 1013.5 0.0
17/12:30pm NE 6 9 - - - - - - - 30.8 1014.0 0.0
17/12:00pm SE 6 8 - - - - - - - 30.0 1014.3 0.0
17/11:30am SE 3 5 - - - - - - - 29.4 1014.7 0.0
17/11:00am SSE 4 5 - - - - - - - 28.3 1015.0 0.0
17/10:30am S 5 6 - - - - - - - 28.1 1015.4 0.0
17/10:00am S 6 8 - - - - - - - 27.9 1015.3 0.0
17/09:30am S 6 7 - - - - - - - 27.0 1015.4 0.0
17/09:00am S 5 7 - - - - - - - 26.5 1015.2 0.0
17/08:30am S 6 8 - - - - - - - 25.7 1014.9 0.0
17/08:00am S 7 9 - - - - - - - 25.0 1014.5 0.0
17/07:30am S 7 9 - - - - - - - 24.4 1014.1 0.0
17/07:00am SSE 7 8 - - - - - - - 24.5 1013.4 0.0
17/06:30am SSE 7 8 - - - - - - - 24.4 1013.1 0.0
17/06:00am S 5 7 - - - - - - - 24.4 1012.5 0.0
17/05:30am SSW 6 7 - - - - - - - 24.4 1012.2 0.0
17/05:00am SSW 5 7 - - - - - - - 24.4 1011.8 0.0
17/04:30am SSW 6 8 - - - - - - - 24.6 1012.0 0.0
17/04:00am SSE 6 7 - - - - - - - 24.7 1011.7 0.0
17/03:30am SSE 6 7 - - - - - - - 24.7 1012.0 0.0
17/03:00am SE 5 6 - - - - - - - 24.9 1012.0 0.0
17/02:30am ESE 7 9 - - - - - - - 24.9 1012.3 0.0
17/02:00am E 7 9 - - - - - - - 24.8 1012.7 0.0
17/01:30am E 7 8 - - - - - - - 24.8 1013.1 0.0
17/01:00am E 7 8 - - - - - - - 24.8 1013.5 0.0
17/12:30am E 7 8 - - - - - - - 24.6 1013.9 0.0
17/12:00am E 7 8 - - - - - - - 24.5 1014.1 0.0
 
Date/Time
CST
Wind Sea
Height
m
Swell Vis
km
Cloud Weather Temp
°C
Press
hPa
Rain since
9am
mm
Dir  Spd
kts
Gust
kts
Height
m
Period
s
Dir
16/11:30pm E 7 9 - - - - - - - 24.6 1014.4 0.0
16/11:00pm E 7 7 - - - - - - - 24.7 1014.7 0.0
16/10:30pm ENE 6 7 - - - - - - - 24.9 1014.8 0.0
16/10:00pm ENE 7 9 - - - - - - - 25.0 1015.0 0.0
16/09:30pm NE 7 10 - - - - - - - 25.1 1014.9 0.0
16/09:00pm NE 7 8 - - - - - - - 25.1 1014.8 0.0
16/08:30pm NE 8 10 - - - - - - - 25.2 1014.6 0.0
16/08:00pm ENE 9 11 - - - - - - - 25.3 1014.2 0.0
16/07:30pm ENE 9 12 - - - - - - - 25.6 1014.2 0.0
16/07:00pm NE 11 13 - - - - - - - 25.7 1013.9 0.0
16/06:30pm NE 12 15 - - - - - - - 26.0 1013.5 0.0
16/06:00pm NNE 13 16 - - - - - - - 26.7 1013.4 0.0
16/05:30pm NNE 14 17 - - - - - - - 27.2 1013.0 0.0
16/05:00pm NNE 13 16 - - - - - - - 27.5 1013.0 0.0
16/04:30pm NNE 14 18 - - - - - - - 28.3 1012.9 0.0
16/04:00pm NNE 13 17 - - - - - - - 28.6 1012.7 0.0
16/03:30pm NNE 13 17 - - - - - - - 29.2 1012.8 0.0
16/03:00pm NE 14 18 - - - - - - - 29.3 1013.0 0.0
16/02:30pm NE 15 19 - - - - - - - 30.2 1013.3 0.0
16/02:00pm NNE 11 14 - - - - - - - 30.4 1013.6 0.0
16/01:30pm NE 12 15 - - - - - - - 30.6 1013.9 0.0
16/01:00pm ENE 11 14 - - - - - - - 30.8 1014.2 0.0
16/12:30pm E 12 15 - - - - - - - 30.7 1014.5 0.0
16/12:00pm E 12 15 - - - - - - - 30.8 1015.0 0.0
16/11:30am E 14 17 - - - - - - - 30.8 1015.4 0.0
16/11:00am ESE 13 16 - - - - - - - 30.2 1015.9 0.0
16/10:30am ESE 14 17 - - - - - - - 28.9 1016.1 0.0
16/10:00am ESE 12 15 - - - - - - - 28.5 1016.2 0.0
16/09:30am SE 10 13 - - - - - - - 27.7 1016.2 0.0
16/09:00am S 7 8 - - - - - - - 26.8 1015.8 0.0
16/08:30am S 7 9 - - - - - - - 26.8 1015.5 0.0
16/08:00am SSW 7 8 - - - - - - - 26.0 1015.1 0.0
16/07:30am SSW 7 9 - - - - - - - 25.0 1014.7 0.0
16/07:00am SSW 8 10 - - - - - - - 23.6 1014.4 0.0
16/06:30am S 9 11 - - - - - - - 23.4 1014.0 0.0
16/06:00am SSW 9 11 - - - - - - - 23.1 1013.7 0.0
16/05:30am SSW 9 11 - - - - - - - 23.0 1013.2 0.0
16/05:00am SSW 10 11 - - - - - - - 23.1 1013.1 0.0
16/04:30am S 8 10 - - - - - - - 23.3 1012.7 0.0
16/04:00am S 10 11 - - - - - - - 23.4 1012.5 0.0
16/03:30am S 10 11 - - - - - - - 23.8 1012.6 0.0
16/03:00am S 8 10 - - - - - - - 24.0 1012.8 0.0
16/02:30am SSW 5 6 - - - - - - - 23.5 1013.0 0.0
16/02:00am SSE 4 6 - - - - - - - 23.4 1013.2 0.0
16/01:30am SE 4 5 - - - - - - - 23.6 1013.4 0.0
16/01:00am SE 4 5 - - - - - - - 23.4 1014.0 0.0
16/12:30am SE 5 6 - - - - - - - 23.9 1014.5 0.0
16/12:00am ENE 4 5 - - - - - - - 23.8 1014.8 0.0
 
Date/Time
CST
Wind Sea
Height
m
Swell Vis
km
Cloud Weather Temp
°C
Press
hPa
Rain since
9am
mm
Dir  Spd
kts
Gust
kts
Height
m
Period
s
Dir
15/11:30pm NE 5 6 - - - - - - - 24.1 1015.2 0.0
15/11:00pm NE 7 9 - - - - - - - 24.3 1015.3 0.0
15/10:30pm ENE 9 11 - - - - - - - 24.6 1015.8 0.0
15/10:00pm ENE 11 13 - - - - - - - 24.8 1015.8 0.0
15/09:30pm ENE 11 13 - - - - - - - 24.8 1016.0 0.0
15/09:00pm ENE 10 13 - - - - - - - 24.9 1015.8 0.0
15/08:30pm ENE 11 13 - - - - - - - 25.0 1015.6 0.0
15/08:00pm ENE 12 15 - - - - - - - 25.2 1015.3 0.0
15/07:30pm E 14 16 - - - - - - - 25.3 1015.0 0.0
15/07:00pm ENE 13 16 - - - - - - - 25.7 1014.7 0.0
15/06:30pm ENE 13 15 - - - - - - - 26.0 1014.3 0.0
15/06:00pm ENE 12 15 - - - - - - - 26.7 1013.9 0.0
15/05:30pm NE 14 17 - - - - - - - 27.2 1013.7 0.0

Other formats

Comma delimited format used in spreadsheet applications
http://www.bom.gov.au/fwo/IDD60701/IDD60701.94248.axf

JavaScript Object Notation format (JSON) in row-major order
http://www.bom.gov.au/fwo/IDD60701/IDD60701.94248.json

Data quality

Most of these data are generated automatically and are frequently updated. Quality checks on data are not normally performed. It is possible for incorrect values to appear. Refer to information at About Latest Weather Observations and please check the disclaimer before using these data.